Iuka, Illinois
Current Conditions -  °F | °C
As of 4:55 PM on Tuesday 21 Oct 2014 (Local Time) from KSLO Reporting Station
Clear Clear  
Wind Chill: 64°   Ceiling: Unl
Heat Index: 64°   Visibility: 10mi
Dew Point: 44°   Wind: 6mph
Humidity: 48%   Direction: 50°NE
Pressure: 30.12"   Gusts: NA
Location:  38.62°N, 88.79°W
Report Text: KSLO 212155Z AUTO 05005KT 10SM CLR 18/07 A3012 RMK AO2 T01800068
Loading
Personal Weather Stations






























Interactive Weather Map
Tropical Storm Tracking
New forecast layout! Learn more

10-Day Weather Forecast

Advertisements
Track Severe Weather on mobile